Time;durP1;ratioP1;P1;durP2;ratioP2;P2;SDS_P1;SDS_P2;PMS_P1;PMS_P2;Temp;Humidity;BMP_temperature;BMP_pressure;BME280_temperature;BME280_humidity;BME280_pressure;Samples;Min_cycle;Max_cycle;Signal;HPM_P1;HPM_P2
2021/09/12 00:00:44;;;;;;;3.40;3.30;;;19.30;57.10;;;;;;5033686;28;20097;-79
2021/09/12 00:03:10;;;;;;;3.65;3.45;;;19.30;57.10;;;;;;5033877;28;20022;-79
2021/09/12 00:05:36;;;;;;;3.50;3.30;;;19.20;57.00;;;;;;5033602;28;20044;-79
2021/09/12 00:08:02;;;;;;;3.50;3.30;;;19.20;57.10;;;;;;5033422;28;20034;-79
2021/09/12 00:10:29;;;;;;;3.33;3.22;;;19.10;57.10;;;;;;5033965;28;20041;-79
2021/09/12 00:12:56;;;;;;;3.50;3.30;;;19.10;57.20;;;;;;5034362;28;20398;-79
2021/09/12 00:15:22;;;;;;;3.40;3.30;;;19.10;57.30;;;;;;5032765;28;20041;-80
2021/09/12 00:17:48;;;;;;;3.78;3.58;;;19.00;57.30;;;;;;5033509;28;20032;-80
2021/09/12 00:20:14;;;;;;;3.30;3.20;;;19.00;57.40;;;;;;5032115;28;20413;-80
2021/09/12 00:22:40;;;;;;;3.10;3.00;;;18.90;57.40;;;;;;5033535;28;20034;-80
2021/09/12 00:25:07;;;;;;;3.45;3.35;;;18.90;57.50;;;;;;5033908;28;20036;-80
2021/09/12 00:27:33;;;;;;;3.25;3.15;;;18.90;57.50;;;;;;5032260;28;20037;-80
2021/09/12 00:30:00;;;;;;;3.42;3.33;;;18.80;57.50;;;;;;5033237;28;20053;-79
2021/09/12 00:32:26;;;;;;;3.53;3.35;;;18.80;57.60;;;;;;5032904;28;20033;-80
2021/09/12 00:34:52;;;;;;;3.50;3.38;;;18.80;57.60;;;;;;5033017;28;20036;-79
2021/09/12 00:37:18;;;;;;;3.65;3.45;;;18.80;57.70;;;;;;5033558;28;20021;-79
2021/09/12 00:39:44;;;;;;;3.45;3.35;;;18.70;57.60;;;;;;5032199;28;20037;-80
2021/09/12 00:42:10;;;;;;;3.70;3.50;;;18.70;57.60;;;;;;5033243;28;20029;-80
2021/09/12 00:44:36;;;;;;;3.33;3.22;;;18.70;57.70;;;;;;5032832;28;20068;-80
2021/09/12 00:47:13;;;;;;;3.63;3.42;;;18.70;57.70;;;;;;5032175;28;20030;-80
2021/09/12 00:49:43;;;;;;;3.60;3.40;;;18.70;57.70;;;;;;5015383;28;20426;-80
2021/09/12 00:52:10;;;;;;;3.42;3.33;;;18.70;57.70;;;;;;5032363;28;20026;-80
2021/09/12 00:54:36;;;;;;;3.63;3.42;;;18.70;57.70;;;;;;5031618;28;20025;-80
2021/09/12 00:57:07;;;;;;;3.63;3.42;;;18.70;57.80;;;;;;5032806;28;20032;-80
2021/09/12 00:59:35;;;;;;;3.47;3.38;;;18.70;57.80;;;;;;5031495;28;20025;-80
2021/09/12 01:02:02;;;;;;;3.50;3.38;;;18.70;58.00;;;;;;5012095;28;20030;-80
2021/09/12 01:04:28;;;;;;;3.88;3.67;;;18.60;57.90;;;;;;5031711;28;20390;-80
2021/09/12 01:06:54;;;;;;;3.53;3.33;;;18.60;57.90;;;;;;5033197;28;20026;-79
2021/09/12 01:09:20;;;;;;;3.60;3.40;;;18.60;57.90;;;;;;5030838;28;20379;-79
2021/09/12 01:11:46;;;;;;;3.60;3.40;;;18.60;58.00;;;;;;5032467;28;20029;-79
2021/09/12 01:14:14;;;;;;;3.30;3.20;;;18.60;58.00;;;;;;5031413;28;20052;-79
2021/09/12 01:16:40;;;;;;;3.63;3.42;;;18.50;58.00;;;;;;5031262;28;20518;-79
2021/09/12 01:19:06;;;;;;;3.17;3.08;;;18.50;58.10;;;;;;5031007;28;20474;-80
2021/09/12 01:21:33;;;;;;;3.20;3.10;;;18.50;58.10;;;;;;5032425;28;20026;-80
2021/09/12 01:23:59;;;;;;;3.90;3.70;;;18.40;58.20;;;;;;5032165;28;20101;-79
2021/09/12 01:26:26;;;;;;;3.40;3.30;;;18.40;58.30;;;;;;5030966;28;20030;-79
2021/09/12 01:28:52;;;;;;;3.20;3.10;;;18.40;58.30;;;;;;5030579;28;20044;-80
2021/09/12 01:31:23;;;;;;;3.25;3.15;;;18.40;58.30;;;;;;5032141;28;20036;-79
2021/09/12 01:33:49;;;;;;;3.25;3.15;;;18.40;58.20;;;;;;5030206;28;20045;-79
2021/09/12 01:36:15;;;;;;;3.45;3.30;;;18.40;58.20;;;;;;5032064;28;20030;-79
2021/09/12 01:38:41;;;;;;;3.20;3.10;;;18.40;58.20;;;;;;5030329;28;20045;-80
2021/09/12 01:41:08;;;;;;;3.10;3.00;;;18.40;58.30;;;;;;5031981;28;20021;-79
2021/09/12 01:43:34;;;;;;;3.78;3.45;;;18.40;58.30;;;;;;5014707;28;20045;-79
2021/09/12 01:46:00;;;;;;;3.03;2.92;;;18.40;58.30;;;;;;5031764;28;20046;-80
2021/09/12 01:48:26;;;;;;;3.30;3.20;;;18.40;58.40;;;;;;5031747;28;20029;-79
2021/09/12 01:50:52;;;;;;;3.60;3.40;;;18.40;58.40;;;;;;5031954;28;20034;-80
2021/09/12 01:53:18;;;;;;;3.22;3.13;;;18.30;59.00;;;;;;5013707;28;20080;-79
2021/09/12 01:55:45;;;;;;;3.00;2.90;;;18.30;58.50;;;;;;5030635;28;20026;-79
2021/09/12 01:58:11;;;;;;;3.67;3.47;;;18.30;58.60;;;;;;5030933;28;20462;-79
2021/09/12 02:00:37;;;;;;;3.05;2.95;;;18.20;58.70;;;;;;5023531;28;20044;-79
2021/09/12 02:03:03;;;;;;;3.75;3.55;;;18.20;58.80;;;;;;5019928;28;20517;-79
2021/09/12 02:05:29;;;;;;;3.00;2.90;;;18.20;58.70;;;;;;5023331;28;20037;-79
2021/09/12 02:07:55;;;;;;;3.08;2.97;;;18.20;58.80;;;;;;5025792;28;20022;-79
2021/09/12 02:10:26;;;;;;;3.58;3.38;;;18.10;58.80;;;;;;5029986;28;20053;-79
2021/09/12 02:12:53;;;;;;;3.10;3.00;;;18.10;58.80;;;;;;5044233;28;20041;-79
2021/09/12 02:15:19;;;;;;;3.47;3.28;;;18.10;58.80;;;;;;5025047;28;20026;-79
2021/09/12 02:17:46;;;;;;;3.20;3.10;;;18.10;58.90;;;;;;5025100;28;20045;-79
2021/09/12 02:20:12;;;;;;;3.13;3.03;;;18.10;58.90;;;;;;5027010;28;20039;-79
2021/09/12 02:22:38;;;;;;;3.55;3.35;;;18.00;59.00;;;;;;5031913;28;20497;-79
2021/09/12 02:25:04;;;;;;;4.15;3.85;;;18.10;59.00;;;;;;5034292;28;20036;-79
2021/09/12 02:27:30;;;;;;;3.15;2.95;;;18.10;59.00;;;;;;5030808;28;20466;-79
2021/09/12 02:29:57;;;;;;;3.10;3.00;;;18.00;59.00;;;;;;5030194;28;20033;-79
2021/09/12 02:32:23;;;;;;;3.20;3.10;;;18.00;59.00;;;;;;5031233;28;20433;-79
2021/09/12 02:34:49;;;;;;;3.53;3.33;;;18.00;59.10;;;;;;5030465;28;20048;-80
2021/09/12 02:37:15;;;;;;;3.40;3.20;;;17.90;59.10;;;;;;5027892;28;20501;-79
2021/09/12 02:39:41;;;;;;;3.53;3.35;;;17.90;59.10;;;;;;5034117;28;20033;-79
2021/09/12 02:42:07;;;;;;;3.30;3.20;;;17.80;59.20;;;;;;5035201;28;20501;-79
2021/09/12 02:44:33;;;;;;;3.47;3.17;;;17.80;59.30;;;;;;5034972;28;20033;-79
2021/09/12 02:46:59;;;;;;;3.95;3.70;;;17.70;59.40;;;;;;5033740;28;20040;-79
2021/09/12 02:49:25;;;;;;;3.35;3.25;;;17.60;59.50;;;;;;5035193;28;20038;-79
2021/09/12 02:51:51;;;;;;;3.63;3.42;;;17.60;59.50;;;;;;5035742;28;20041;-79
2021/09/12 02:54:18;;;;;;;3.10;3.00;;;17.60;59.60;;;;;;5035118;28;20025;-79
2021/09/12 02:56:44;;;;;;;3.10;3.00;;;17.50;59.60;;;;;;5033838;28;20032;-79
2021/09/12 02:59:10;;;;;;;3.20;3.10;;;17.50;59.70;;;;;;5034769;28;20497;-79
2021/09/12 03:01:36;;;;;;;3.10;3.00;;;17.40;59.60;;;;;;5034972;28;20026;-79
2021/09/12 03:04:02;;;;;;;3.05;2.90;;;17.40;59.70;;;;;;5035603;28;20037;-79
2021/09/12 03:06:28;;;;;;;2.90;2.80;;;17.40;59.70;;;;;;5034799;28;20033;-79
2021/09/12 03:08:54;;;;;;;2.92;2.83;;;17.40;59.70;;;;;;5033678;28;20053;-79
2021/09/12 03:11:20;;;;;;;3.30;3.10;;;17.40;59.70;;;;;;5034878;28;20061;-79
2021/09/12 03:13:46;;;;;;;2.95;2.85;;;17.40;59.70;;;;;;5033477;28;20382;-79
2021/09/12 03:16:12;;;;;;;3.20;3.00;;;17.40;59.70;;;;;;5034913;28;20036;-79
2021/09/12 03:18:39;;;;;;;3.20;3.00;;;17.40;59.80;;;;;;5034704;28;20465;-79
2021/09/12 03:21:05;;;;;;;2.90;2.80;;;17.40;59.80;;;;;;5033394;28;20038;-79
2021/09/12 03:23:31;;;;;;;2.85;2.75;;;17.40;59.80;;;;;;5034551;28;20385;-79
2021/09/12 03:25:57;;;;;;;3.20;3.00;;;17.40;59.90;;;;;;5034578;28;20033;-79
2021/09/12 03:28:23;;;;;;;3.17;2.97;;;17.40;59.90;;;;;;5034488;28;20040;-79
2021/09/12 03:30:49;;;;;;;4.07;3.03;;;17.40;59.90;;;;;;5034312;28;20042;-79
2021/09/12 03:33:16;;;;;;;2.63;2.53;;;17.50;60.00;;;;;;5034163;28;20029;-79
2021/09/12 03:35:42;;;;;;;2.80;2.70;;;17.40;59.90;;;;;;5034010;28;20414;-79
2021/09/12 03:38:08;;;;;;;2.90;2.80;;;17.40;59.90;;;;;;5034210;28;20040;-79
2021/09/12 03:40:34;;;;;;;2.80;2.70;;;17.40;60.00;;;;;;5033266;28;20473;-79
2021/09/12 03:43:01;;;;;;;3.10;2.90;;;17.40;60.00;;;;;;5034595;28;20021;-79
2021/09/12 03:45:27;;;;;;;3.40;3.13;;;17.40;60.00;;;;;;5033647;28;20046;-79
2021/09/12 03:47:53;;;;;;;3.03;2.90;;;17.40;60.10;;;;;;5033094;28;20028;-79
2021/09/12 03:50:19;;;;;;;3.47;2.97;;;17.40;60.10;;;;;;5032592;28;20418;-79
2021/09/12 03:52:45;;;;;;;3.00;2.90;;;17.40;60.20;;;;;;5033160;28;20037;-79
2021/09/12 03:55:11;;;;;;;3.40;3.20;;;17.40;60.30;;;;;;5034597;28;20021;-79
2021/09/12 03:57:37;;;;;;;3.13;3.03;;;17.40;60.40;;;;;;5033650;28;20022;-79
2021/09/12 04:00:07;;;;;;;2.75;2.65;;;17.30;60.40;;;;;;5033423;28;20030;-79
2021/09/12 04:02:34;;;;;;;2.90;2.80;;;17.30;60.50;;;;;;5034002;28;20025;-79
2021/09/12 04:05:00;;;;;;;3.13;3.03;;;17.30;60.60;;;;;;5033956;28;20032;-79
2021/09/12 04:07:26;;;;;;;2.70;2.60;;;17.20;61.40;;;;;;5033978;28;20030;-79
2021/09/12 04:09:52;;;;;;;3.30;3.10;;;17.20;60.70;;;;;;5032808;28;20581;-79
2021/09/12 04:12:19;;;;;;;3.30;3.10;;;17.20;60.70;;;;;;5033343;28;20074;-80
2021/09/12 04:14:45;;;;;;;2.88;2.78;;;17.10;60.70;;;;;;5033479;28;20521;-79
2021/09/12 04:17:11;;;;;;;3.08;2.97;;;17.20;60.80;;;;;;5031891;28;20033;-79
2021/09/12 04:19:37;;;;;;;3.00;2.80;;;17.10;60.80;;;;;;5033837;28;20218;-79
2021/09/12 04:22:03;;;;;;;3.53;3.25;;;17.10;60.90;;;;;;5034261;28;20355;-79
2021/09/12 04:24:29;;;;;;;3.47;3.28;;;17.10;60.90;;;;;;5033101;28;20026;-79
2021/09/12 04:26:55;;;;;;;3.35;3.15;;;17.10;60.90;;;;;;5033152;28;20518;-79
2021/09/12 04:29:22;;;;;;;3.05;2.95;;;17.10;60.90;;;;;;5033317;28;20038;-79
2021/09/12 04:31:48;;;;;;;2.90;2.80;;;17.10;60.90;;;;;;5032685;28;20041;-79
2021/09/12 04:34:14;;;;;;;2.85;2.75;;;17.10;61.00;;;;;;5032062;28;20037;-79
2021/09/12 04:36:40;;;;;;;5.35;2.58;;;17.10;61.00;;;;;;5031932;28;20044;-79
2021/09/12 04:39:07;;;;;;;2.85;2.75;;;17.10;61.00;;;;;;5031607;28;20049;-79
2021/09/12 04:41:33;;;;;;;2.88;2.78;;;17.10;61.00;;;;;;5033117;28;20033;-79
2021/09/12 04:43:59;;;;;;;2.80;2.70;;;17.10;61.10;;;;;;5032553;28;20044;-79
2021/09/12 04:46:25;;;;;;;3.15;2.95;;;17.10;61.10;;;;;;5032754;28;20033;-79
2021/09/12 04:48:51;;;;;;;3.10;3.00;;;17.00;61.10;;;;;;5033672;28;20048;-79
2021/09/12 04:51:17;;;;;;;3.25;3.08;;;17.00;61.20;;;;;;5031642;28;20033;-79
2021/09/12 04:53:43;;;;;;;3.42;3.22;;;17.00;61.30;;;;;;5031432;28;20028;-79
2021/09/12 04:56:09;;;;;;;2.90;2.80;;;16.90;61.40;;;;;;5032972;28;20029;-79
2021/09/12 04:58:35;;;;;;;3.20;3.10;;;16.90;61.40;;;;;;5032965;28;20026;-79
2021/09/12 05:01:02;;;;;;;3.10;2.97;;;16.90;61.50;;;;;;5033107;28;20034;-79
2021/09/12 05:03:29;;;;;;;2.85;2.70;;;16.90;61.50;;;;;;5031465;28;20029;-79
2021/09/12 05:05:55;;;;;;;2.88;2.78;;;16.90;61.50;;;;;;5031684;28;20032;-79
2021/09/12 05:08:22;;;;;;;4.05;3.03;;;16.90;61.60;;;;;;5032226;28;20398;-79
2021/09/12 05:10:48;;;;;;;3.38;3.08;;;16.80;61.60;;;;;;5032805;28;20037;-79
2021/09/12 05:13:14;;;;;;;3.35;3.15;;;16.80;61.60;;;;;;5033547;28;20394;-79
2021/09/12 05:15:42;;;;;;;3.00;2.80;;;16.80;61.60;;;;;;5030839;28;20037;-79
2021/09/12 05:18:12;;;;;;;2.63;2.53;;;16.80;61.70;;;;;;5031248;28;20040;-79
2021/09/12 05:20:38;;;;;;;2.50;2.40;;;16.80;61.80;;;;;;5032395;28;20040;-79
2021/09/12 05:23:04;;;;;;;3.65;2.85;;;16.80;61.80;;;;;;5032115;28;20036;-79
2021/09/12 05:25:34;;;;;;;2.80;2.70;;;16.70;61.90;;;;;;5031286;28;20030;-79
2021/09/12 05:28:00;;;;;;;2.80;2.70;;;16.70;62.00;;;;;;5029120;28;20044;-79
2021/09/12 05:30:26;;;;;;;2.60;2.50;;;16.70;62.00;;;;;;5031209;28;20049;-79
2021/09/12 05:32:52;;;;;;;2.80;2.70;;;16.60;62.00;;;;;;5031116;28;20026;-79
2021/09/12 05:35:19;;;;;;;2.80;2.70;;;16.60;62.20;;;;;;5030751;28;20086;-79
2021/09/12 05:37:45;;;;;;;2.97;2.88;;;16.60;62.20;;;;;;5031888;28;20045;-79
2021/09/12 05:40:11;;;;;;;2.65;2.55;;;16.60;62.30;;;;;;5031778;28;20116;-79
2021/09/12 05:42:38;;;;;;;2.80;2.70;;;16.60;62.30;;;;;;5030176;28;20033;-79
2021/09/12 05:45:05;;;;;;;2.65;2.55;;;16.60;62.30;;;;;;5030301;28;20029;-79
2021/09/12 05:47:31;;;;;;;2.70;2.60;;;16.60;62.20;;;;;;5031953;28;20021;-79
2021/09/12 05:49:57;;;;;;;2.90;2.80;;;16.70;62.20;;;;;;5030776;28;20053;-79
2021/09/12 05:52:23;;;;;;;2.80;2.70;;;16.60;62.20;;;;;;5031829;28;20037;-79
2021/09/12 05:54:49;;;;;;;2.78;2.67;;;16.60;62.30;;;;;;5014358;28;20065;-79
2021/09/12 05:57:15;;;;;;;2.70;2.60;;;16.70;62.30;;;;;;5030985;28;20029;-79
2021/09/12 05:59:42;;;;;;;3.00;2.80;;;16.70;62.20;;;;;;5030608;28;20147;-79
2021/09/12 06:02:08;;;;;;;2.90;2.80;;;16.80;62.20;;;;;;5031340;28;20038;-79
2021/09/12 06:04:34;;;;;;;2.92;2.83;;;16.80;62.20;;;;;;5029833;28;20375;-79
2021/09/12 06:07:00;;;;;;;2.85;2.75;;;16.80;62.10;;;;;;5010654;28;20049;-79
2021/09/12 06:09:26;;;;;;;3.22;3.03;;;16.80;62.20;;;;;;5027455;28;20097;-79
2021/09/12 06:11:52;;;;;;;2.88;2.78;;;16.80;62.30;;;;;;5031742;28;20482;-79
2021/09/12 06:14:19;;;;;;;2.90;2.80;;;16.70;62.20;;;;;;5031670;28;20025;-79
2021/09/12 06:16:45;;;;;;;2.60;2.50;;;16.70;62.30;;;;;;5013793;28;20041;-78
2021/09/12 06:19:11;;;;;;;2.72;2.60;;;16.70;62.30;;;;;;5031101;28;20033;-79
2021/09/12 06:21:37;;;;;;;2.97;2.83;;;16.70;62.40;;;;;;5030842;28;20037;-79
2021/09/12 06:24:04;;;;;;;3.13;2.88;;;16.80;62.50;;;;;;5029455;28;20038;-79
2021/09/12 06:26:30;;;;;;;3.15;2.75;;;16.80;62.40;;;;;;5031416;28;20045;-78
2021/09/12 06:28:56;;;;;;;2.90;2.80;;;16.90;62.30;;;;;;5030559;28;20029;-79
2021/09/12 06:31:22;;;;;;;3.20;3.00;;;16.90;62.20;;;;;;5031154;28;20046;-79
2021/09/12 06:33:48;;;;;;;3.10;2.90;;;17.00;62.10;;;;;;5030673;28;20022;-79
2021/09/12 06:36:15;;;;;;;3.00;2.90;;;17.10;62.00;;;;;;5009962;28;20034;-79
2021/09/12 06:38:42;;;;;;;2.95;2.85;;;17.20;61.80;;;;;;5022543;28;20532;-79
2021/09/12 06:41:08;;;;;;;2.90;2.80;;;17.30;61.70;;;;;;5031467;28;20033;-78
2021/09/12 06:43:34;;;;;;;2.92;2.83;;;17.40;61.60;;;;;;5030751;28;20497;-79
2021/09/12 06:46:00;;;;;;;3.17;3.08;;;17.40;61.40;;;;;;5031449;28;20040;-79
2021/09/12 06:48:26;;;;;;;3.20;3.10;;;17.50;61.30;;;;;;5030064;28;20394;-79
2021/09/12 06:50:53;;;;;;;3.00;2.90;;;17.70;61.20;;;;;;5031032;28;20423;-79
2021/09/12 06:53:20;;;;;;;3.35;3.15;;;17.80;61.00;;;;;;5030197;28;20398;-79
2021/09/12 06:55:46;;;;;;;3.70;3.50;;;17.90;60.80;;;;;;5013884;28;20036;-79
2021/09/12 06:58:12;;;;;;;3.53;3.33;;;18.00;60.80;;;;;;5031918;28;20029;-79
2021/09/12 07:00:38;;;;;;;3.67;3.47;;;18.10;60.60;;;;;;5030620;28;20040;-79
2021/09/12 07:03:04;;;;;;;3.67;3.47;;;18.30;60.40;;;;;;5030091;28;20029;-79
2021/09/12 07:05:30;;;;;;;3.75;3.55;;;18.40;60.20;;;;;;5030839;28;20034;-79
2021/09/12 07:07:56;;;;;;;4.18;3.97;;;18.50;60.00;;;;;;5031721;28;20041;-79
2021/09/12 07:10:23;;;;;;;4.47;4.00;;;18.60;60.00;;;;;;5035184;28;20052;-78
2021/09/12 07:12:49;;;;;;;4.82;4.53;;;18.70;59.90;;;;;;5035298;28;20036;-79
2021/09/12 07:15:15;;;;;;;5.10;4.80;;;18.90;59.80;;;;;;5032672;28;20030;-79
2021/09/12 07:17:41;;;;;;;4.07;3.88;;;19.20;59.40;;;;;;5034623;28;20043;-79
2021/09/12 07:20:08;;;;;;;3.70;3.50;;;19.40;59.10;;;;;;5034534;28;20040;-79
2021/09/12 07:22:34;;;;;;;4.22;4.03;;;19.60;58.90;;;;;;5034650;28;20060;-79
2021/09/12 07:25:00;;;;;;;4.00;3.80;;;19.70;58.70;;;;;;5034067;28;20029;-79
2021/09/12 07:27:26;;;;;;;4.32;3.90;;;19.70;58.70;;;;;;5033209;28;20041;-79
2021/09/12 07:29:52;;;;;;;3.97;3.78;;;19.60;58.80;;;;;;5033189;28;20021;-79
2021/09/12 07:32:18;;;;;;;4.40;4.20;;;19.70;59.00;;;;;;5033389;28;20029;-79
2021/09/12 07:34:44;;;;;;;3.90;3.70;;;19.70;59.00;;;;;;5033031;28;20028;-79
2021/09/12 07:37:10;;;;;;;3.88;3.67;;;19.70;59.00;;;;;;5035235;28;20033;-79
2021/09/12 07:39:36;;;;;;;3.95;3.75;;;19.70;59.10;;;;;;5034564;28;20022;-79
2021/09/12 07:42:03;;;;;;;4.10;3.90;;;19.80;59.10;;;;;;5032997;28;20029;-79
2021/09/12 07:44:29;;;;;;;4.50;4.30;;;19.90;59.00;;;;;;5033612;28;20030;-79
2021/09/12 07:46:55;;;;;;;9.38;4.13;;;20.00;58.70;;;;;;5033915;28;20044;-79
2021/09/12 07:49:21;;;;;;;4.68;4.47;;;20.30;58.60;;;;;;5033958;28;20037;-79
2021/09/12 07:51:47;;;;;;;5.70;5.40;;;20.60;58.80;;;;;;5016318;28;20050;-81
2021/09/12 07:54:13;;;;;;;4.97;4.78;;;20.80;57.70;;;;;;5033036;28;20018;-80
2021/09/12 07:56:39;;;;;;;4.40;4.20;;;21.00;57.40;;;;;;5033882;28;20036;-80
2021/09/12 07:59:06;;;;;;;4.97;4.68;;;21.10;57.20;;;;;;5034008;28;20025;-80
2021/09/12 08:01:32;;;;;;;4.45;4.15;;;21.20;57.20;;;;;;5033317;28;20433;-80
2021/09/12 08:03:58;;;;;;;4.25;4.05;;;21.20;57.20;;;;;;5033658;28;20048;-80
2021/09/12 08:06:24;;;;;;;4.85;4.65;;;21.30;57.10;;;;;;5032580;28;20466;-80
2021/09/12 08:08:50;;;;;;;5.50;5.20;;;21.40;57.00;;;;;;5033255;28;20494;-80
2021/09/12 08:11:16;;;;;;;7.50;5.45;;;21.40;57.00;;;;;;5033629;28;20045;-80
2021/09/12 08:13:43;;;;;;;5.82;5.53;;;21.40;57.00;;;;;;5032165;28;20049;-80
2021/09/12 08:16:09;;;;;;;5.32;5.13;;;21.50;56.90;;;;;;5032586;28;20032;-80
2021/09/12 08:18:35;;;;;;;5.00;4.80;;;21.50;56.90;;;;;;5031621;28;20025;-81
2021/09/12 08:21:01;;;;;;;5.45;5.22;;;21.50;56.90;;;;;;5031771;28;20028;-80
2021/09/12 08:23:28;;;;;;;5.32;5.10;;;21.50;56.90;;;;;;5033008;28;20037;-80
2021/09/12 08:25:54;;;;;;;6.13;5.82;;;21.60;57.00;;;;;;5033521;28;20033;-80
2021/09/12 08:28:20;;;;;;;6.13;5.82;;;21.70;56.80;;;;;;5032433;28;20032;-80
2021/09/12 08:30:46;;;;;;;5.90;5.50;;;21.90;56.60;;;;;;5033071;28;20514;-80
2021/09/12 08:33:13;;;;;;;6.00;5.70;;;22.00;56.30;;;;;;5031715;28;20034;-81
2021/09/12 08:35:39;;;;;;;6.40;6.10;;;22.10;56.10;;;;;;5033207;28;20036;-80
2021/09/12 08:38:05;;;;;;;5.75;5.45;;;22.20;56.00;;;;;;5033313;28;20485;-81
2021/09/12 08:40:32;;;;;;;6.10;5.75;;;22.30;55.80;;;;;;5033250;28;20038;-80
2021/09/12 08:42:58;;;;;;;5.75;5.45;;;22.40;55.70;;;;;;5012428;28;20395;-81
2021/09/12 08:45:24;;;;;;;6.20;5.80;;;22.50;55.60;;;;;;5030270;28;20041;-81
2021/09/12 08:47:51;;;;;;;5.82;5.53;;;22.70;55.50;;;;;;5032651;28;20036;-81
2021/09/12 08:50:17;;;;;;;6.45;6.15;;;22.80;55.20;;;;;;5033150;28;20401;-81
2021/09/12 08:52:46;;;;;;;6.80;6.45;;;22.90;55.00;;;;;;5033142;28;20036;-81
2021/09/12 08:55:12;;;;;;;6.38;6.07;;;23.10;54.80;;;;;;5032308;28;20093;-80
2021/09/12 08:57:49;;;;;;;7.43;7.03;;;23.20;54.70;;;;;;5032853;28;20037;-81
2021/09/12 09:00:25;;;;;;;6.15;5.85;;;23.30;54.60;;;;;;5030317;28;20456;-81
2021/09/12 09:03:03;;;;;;;6.70;6.38;;;23.30;54.50;;;;;;5032010;28;20056;-81
2021/09/12 09:05:41;;;;;;;7.57;7.25;;;23.50;54.40;;;;;;5012212;28;20034;-80
2021/09/12 09:08:14;;;;;;;6.97;6.68;;;23.60;54.10;;;;;;5032563;28;20042;-81
2021/09/12 09:10:45;;;;;;;8.40;8.00;;;23.90;53.90;;;;;;5032379;28;20033;-81
2021/09/12 09:13:30;;;;;;;8.02;7.63;;;24.10;53.60;;;;;;5031831;28;20045;-81
2021/09/12 09:15:58;;;;;;;7.03;6.72;;;24.20;53.40;;;;;;5032001;28;20042;-81
2021/09/12 09:18:40;;;;;;;6.75;6.45;;;24.30;53.20;;;;;;5032632;28;20029;-81
2021/09/12 09:21:26;;;;;;;6.95;6.65;;;24.30;53.20;;;;;;5032416;28;20420;-81
2021/09/12 09:24:17;;;;;;;6.68;6.35;;;24.20;53.10;;;;;;5031247;28;20029;-81
2021/09/12 09:26:47;;;;;;;6.93;6.63;;;24.10;53.20;;;;;;5032003;28;20037;-81
2021/09/12 09:29:13;;;;;;;7.70;7.38;;;24.00;53.40;;;;;;5030973;28;20390;-81
2021/09/12 09:31:40;;;;;;;7.35;7.05;;;24.10;53.30;;;;;;5030747;28;20049;-81
2021/09/12 09:34:13;;;;;;;7.28;6.97;;;24.20;53.20;;;;;;5031735;28;20032;-81
2021/09/12 09:36:39;;;;;;;7.18;6.88;;;24.40;52.70;;;;;;5031839;28;20041;-81
2021/09/12 09:39:05;;;;;;;7.85;7.45;;;24.50;52.50;;;;;;5030495;28;20033;-81
2021/09/12 09:41:35;;;;;;;6.97;6.68;;;24.60;52.40;;;;;;5031906;28;20044;-81
2021/09/12 09:44:06;;;;;;;7.43;7.13;;;24.60;52.30;;;;;;5031795;28;20025;-81
2021/09/12 09:46:34;;;;;;;6.45;6.15;;;24.60;52.20;;;;;;5014596;28;20026;-81
2021/09/12 09:49:17;;;;;;;6.93;6.57;;;24.70;52.20;;;;;;5013314;28;20028;-81
2021/09/12 09:51:45;;;;;;;7.18;6.88;;;24.70;52.20;;;;;;5030225;28;20049;-81
2021/09/12 09:54:11;;;;;;;7.10;6.80;;;24.80;52.00;;;;;;5030715;28;20088;-81
2021/09/12 09:56:37;;;;;;;7.40;7.10;;;24.80;51.90;;;;;;5030700;28;20042;-81
2021/09/12 09:59:03;;;;;;;7.35;7.05;;;24.80;51.80;;;;;;5012066;28;20034;-81
2021/09/12 10:01:30;;;;;;;7.35;7.05;;;24.90;51.80;;;;;;5013824;28;20038;-81
2021/09/12 10:03:56;;;;;;;7.65;7.35;;;24.90;51.60;;;;;;4997966;28;20038;-81
2021/09/12 10:06:22;;;;;;;6.60;6.30;;;25.00;51.50;;;;;;5014160;28;20505;-81
2021/09/12 10:08:48;;;;;;;7.70;7.38;;;25.10;51.40;;;;;;5030180;28;20037;-81
2021/09/12 10:11:14;;;;;;;8.43;8.02;;;25.20;51.20;;;;;;5031819;28;20494;-81
2021/09/12 10:13:40;;;;;;;7.72;7.20;;;25.30;50.70;;;;;;5013820;28;20044;-81
2021/09/12 10:16:06;;;;;;;8.30;7.55;;;25.30;50.50;;;;;;5010497;28;20037;-81
2021/09/12 10:18:32;;;;;;;8.50;8.10;;;25.30;50.50;;;;;;5014211;28;20030;-81
2021/09/12 10:21:22;;;;;;;8.80;8.40;;;25.40;50.30;;;;;;5031690;28;20097;-81
2021/09/12 10:24:03;;;;;;;7.47;7.18;;;25.50;50.10;;;;;;5030008;28;20048;-81
2021/09/12 10:26:38;;;;;;;8.68;8.27;;;25.60;49.90;;;;;;5029632;28;20037;-81
2021/09/12 10:29:05;;;;;;;8.55;8.15;;;25.60;49.60;;;;;;5030534;28;20037;-81
2021/09/12 10:31:33;;;;;;;8.52;8.13;;;25.70;49.60;;;;;;5029947;28;20040;-81
2021/09/12 10:34:11;;;;;;;8.00;7.63;;;25.80;49.40;;;;;;5030038;28;20028;-81
2021/09/12 10:36:41;;;;;;;6.95;6.65;;;25.80;49.10;;;;;;5030715;28;20041;-81
2021/09/12 10:39:32;;;;;;;6.72;6.43;;;25.80;48.80;;;;;;5029739;28;20593;-81
2021/09/12 10:42:13;;;;;;;;;;;25.70;48.60;;;;;;5031509;28;20040;-81
2021/09/12 10:44:39;;;;;;;;;;;25.70;48.70;;;;;;5035658;28;19916;-81
2021/09/12 10:47:10;;;;;;;6.80;6.50;;;25.80;48.30;;;;;;5035212;28;19920;-81
2021/09/12 10:49:36;;;;;;;6.63;6.32;;;25.70;48.20;;;;;;5034399;28;20025;-81
2021/09/12 10:52:02;;;;;;;6.15;5.85;;;25.80;48.30;;;;;;5035793;28;20482;-81
2021/09/12 10:54:28;;;;;;;6.13;5.82;;;25.90;48.20;;;;;;5035145;28;20493;-81
2021/09/12 10:57:08;;;;;;;6.57;6.28;;;25.90;48.10;;;;;;5034898;28;20034;-81
2021/09/12 10:59:34;;;;;;;6.43;6.13;;;25.90;48.00;;;;;;5033930;28;20033;-81
2021/09/12 11:02:00;;;;;;;6.45;6.15;;;25.80;48.20;;;;;;5032851;28;20041;-81
2021/09/12 11:04:28;;;;;;;6.53;6.22;;;25.70;48.00;;;;;;5033922;28;20092;-81
2021/09/12 11:07:13;;;;;;;7.03;6.72;;;25.70;48.10;;;;;;5035637;28;20501;-81
2021/09/12 11:09:39;;;;;;;6.35;6.05;;;25.80;47.70;;;;;;5034780;28;20502;-81
2021/09/12 11:12:05;;;;;;;5.40;5.20;;;25.70;47.60;;;;;;5034348;28;20037;-81
2021/09/12 11:14:33;;;;;;;7.85;6.22;;;25.70;47.70;;;;;;5033570;28;20029;-81
2021/09/12 11:17:12;;;;;;;6.18;5.88;;;25.80;47.80;;;;;;5016111;28;20053;-81
2021/09/12 11:19:38;;;;;;;5.65;5.40;;;25.80;47.40;;;;;;5034930;28;20040;-81
2021/09/12 11:22:04;;;;;;;6.70;6.40;;;25.90;47.30;;;;;;5035385;28;20033;-81
2021/09/12 11:24:30;;;;;;;6.18;5.88;;;26.00;47.00;;;;;;5034510;28;20049;-81
2021/09/12 11:26:59;;;;;;;5.72;5.43;;;25.90;47.00;;;;;;5034375;28;20029;-81
2021/09/12 11:29:27;;;;;;;5.78;5.47;;;25.90;47.00;;;;;;5033361;28;20025;-81
2021/09/12 11:32:07;;;;;;;6.28;5.97;;;25.90;47.10;;;;;;5032179;28;20041;-81
2021/09/12 11:34:33;;;;;;;6.73;6.43;;;26.10;47.00;;;;;;5017074;28;20026;-81
2021/09/12 11:37:09;;;;;;;6.20;5.90;;;26.20;46.90;;;;;;5033069;28;20405;-81
2021/09/12 11:39:37;;;;;;;6.63;6.32;;;26.20;46.80;;;;;;5033227;28;20401;-81
2021/09/12 11:42:05;;;;;;;7.22;6.57;;;26.20;46.70;;;;;;5033963;28;20033;-81
2021/09/12 11:44:55;;;;;;;7.28;6.97;;;26.20;46.70;;;;;;5034214;28;20057;-81
2021/09/12 11:47:22;;;;;;;5.25;5.05;;;26.10;46.60;;;;;;5032716;28;20044;-81
2021/09/12 11:50:02;;;;;;;6.40;6.07;;;26.00;46.80;;;;;;5018775;28;20029;-81
2021/09/12 11:52:34;;;;;;;7.22;6.93;;;26.00;46.60;;;;;;5028901;28;20044;-82
2021/09/12 11:55:00;;;;;;;6.57;6.20;;;26.00;46.60;;;;;;5031356;28;20025;-81
2021/09/12 11:57:26;;;;;;;6.45;6.15;;;26.10;46.60;;;;;;5034024;28;20033;-81
2021/09/12 11:59:52;;;;;;;7.32;7.03;;;26.20;46.60;;;;;;5033942;28;20017;-81
2021/09/12 12:02:23;;;;;;;7.07;6.78;;;26.30;46.50;;;;;;5032426;28;20037;-81
2021/09/12 12:04:50;;;;;;;6.22;5.93;;;26.30;46.30;;;;;;5016348;28;20486;-81
2021/09/12 12:07:17;;;;;;;6.38;6.07;;;26.30;46.40;;;;;;5033331;28;20045;-81
2021/09/12 12:09:47;;;;;;;5.80;5.50;;;26.30;46.30;;;;;;5032273;28;20040;-81
2021/09/12 12:12:14;;;;;;;6.15;5.85;;;26.30;46.40;;;;;;5032588;28;20040;-81
2021/09/12 12:15:00;;;;;;;7.30;7.00;;;26.20;46.50;;;;;;5033706;28;20029;-81
2021/09/12 12:17:26;;;;;;;5.28;5.03;;;26.10;46.40;;;;;;5031491;28;20029;-81
2021/09/12 12:19:55;;;;;;;5.65;5.35;;;26.10;46.30;;;;;;5032545;28;20036;-81
2021/09/12 12:22:23;;;;;;;5.38;5.07;;;26.00;46.20;;;;;;5033790;28;20045;-81
2021/09/12 12:24:54;;;;;;;5.90;5.60;;;25.90;46.30;;;;;;5032450;28;20025;-81
2021/09/12 12:27:21;;;;;;;6.13;5.82;;;25.70;46.40;;;;;;5032218;28;20025;-81
2021/09/12 12:30:00;;;;;;;6.18;5.88;;;25.70;46.50;;;;;;5012044;28;20380;-81
2021/09/12 12:32:27;;;;;;;5.88;5.57;;;25.70;46.50;;;;;;5021239;28;20045;-81
2021/09/12 12:34:56;;;;;;;5.28;5.07;;;25.60;46.50;;;;;;5032919;28;20398;-81
2021/09/12 12:37:35;;;;;;;5.78;5.47;;;25.70;46.50;;;;;;5032738;28;20041;-81
2021/09/12 12:40:05;;;;;;;6.43;6.13;;;25.80;46.40;;;;;;5033862;28;20034;-81
2021/09/12 12:42:35;;;;;;;6.90;6.60;;;25.80;46.40;;;;;;5033215;28;20037;-81
2021/09/12 12:45:23;;;;;;;7.88;7.50;;;26.00;46.30;;;;;;5031433;28;20033;-79
2021/09/12 12:47:52;;;;;;;6.93;6.63;;;26.20;46.20;;;;;;5033144;28;20029;-81
2021/09/12 12:50:38;;;;;;;6.80;6.50;;;26.40;46.00;;;;;;5031929;28;20029;-81